Time;durP1;ratioP1;P1;durP2;ratioP2;P2;SDS_P1;SDS_P2;PMS_P1;PMS_P2;Temp;Humidity;BMP_temperature;BMP_pressure;BME280_temperature;BME280_humidity;BME280_pressure;Samples;Min_cycle;Max_cycle;Signal;HPM_P1;HPM_P2
2023/10/25 00:00:29;;;;;;;0.30;0.30;;;;;;;12.42;100.00;94403.50;4311784;33;20193;-63
2023/10/25 00:02:56;;;;;;;0.30;0.30;;;;;;;12.24;100.00;94401.00;4274311;33;20229;-63
2023/10/25 00:05:22;;;;;;;0.70;0.70;;;;;;;12.24;100.00;94395.69;4265898;33;20194;-63
2023/10/25 00:07:49;;;;;;;0.40;0.40;;;;;;;12.23;100.00;94399.44;4298611;33;20186;-63
2023/10/25 00:10:16;;;;;;;0.30;0.30;;;;;;;12.38;100.00;94398.06;4302447;33;20241;-63
2023/10/25 00:12:43;;;;;;;0.20;0.20;;;;;;;12.18;100.00;94396.97;4302561;33;20198;-63
2023/10/25 00:15:10;;;;;;;0.20;0.20;;;;;;;12.09;100.00;94406.91;4303500;33;20288;-64
2023/10/25 00:17:35;;;;;;;0.67;0.67;;;;;;;12.12;100.00;94403.59;4264301;33;20183;-63
2023/10/25 00:20:00;;;;;;;0.30;0.30;;;;;;;12.11;100.00;94411.91;4318996;33;20204;-63
2023/10/25 00:22:27;;;;;;;0.10;0.10;;;;;;;12.09;100.00;94409.56;4311659;33;20197;-63
2023/10/25 00:24:53;;;;;;;0.40;0.40;;;;;;;12.23;100.00;94412.75;4293840;33;20190;-63
2023/10/25 00:27:19;;;;;;;0.63;0.63;;;;;;;12.25;100.00;94413.19;4289985;33;20244;-63
2023/10/25 00:29:46;;;;;;;0.77;0.77;;;;;;;12.12;100.00;94410.78;4296148;33;20190;-63
2023/10/25 00:32:14;;;;;;;0.20;0.20;;;;;;;12.26;100.00;94419.31;4275068;33;20241;-63
2023/10/25 00:34:42;;;;;;;0.30;0.30;;;;;;;12.11;100.00;94423.31;4304309;33;20206;-64
2023/10/25 00:37:08;;;;;;;0.37;0.37;;;;;;;12.03;100.00;94416.19;4305015;33;20277;-63
2023/10/25 00:39:35;;;;;;;0.43;0.43;;;;;;;12.13;100.00;94430.97;4298991;33;20240;-64
2023/10/25 00:42:02;;;;;;;0.67;0.67;;;;;;;12.12;100.00;94424.88;4294142;33;20178;-63
2023/10/25 00:44:29;;;;;;;0.60;0.60;;;;;;;12.20;100.00;94429.34;4253874;33;20237;-63
2023/10/25 00:46:55;;;;;;;0.27;0.27;;;;;;;12.21;100.00;94433.56;4293518;33;20185;-63
2023/10/25 00:49:22;;;;;;;0.37;0.37;;;;;;;12.20;100.00;94432.00;4310177;33;20216;-63
2023/10/25 00:51:59;;;;;;;0.40;0.40;;;;;;;12.17;100.00;94437.97;4312924;33;20189;-63
2023/10/25 00:54:28;;;;;;;1.30;1.20;;;;;;;12.11;100.00;94436.59;4282936;33;20178;-64
2023/10/25 00:56:57;;;;;;;0.43;0.43;;;;;;;12.00;100.00;94446.06;4297490;33;20174;-63
2023/10/25 00:59:25;;;;;;;0.40;0.40;;;;;;;12.14;100.00;94443.16;4301215;33;20198;-64
2023/10/25 01:01:53;;;;;;;0.40;0.40;;;;;;;12.19;100.00;94446.41;4271907;33;20191;-63
2023/10/25 01:04:21;;;;;;;0.40;0.40;;;;;;;12.04;100.00;94449.66;4295637;33;20226;-63
2023/10/25 01:06:48;;;;;;;0.50;0.50;;;;;;;11.93;100.00;94443.91;4301019;33;20186;-63
2023/10/25 01:09:14;;;;;;;2.00;1.00;;;;;;;11.95;100.00;94446.25;4297120;33;20220;-63
2023/10/25 01:11:41;;;;;;;0.40;0.40;;;;;;;12.02;100.00;94438.56;4283363;33;20317;-64
2023/10/25 01:14:10;;;;;;;0.77;0.77;;;;;;;12.03;100.00;94445.44;4298232;33;20292;-63
2023/10/25 01:16:37;;;;;;;0.47;0.47;;;;;;;12.04;100.00;94434.47;4310692;33;20196;-63
2023/10/25 01:19:03;;;;;;;0.40;0.40;;;;;;;11.90;100.00;94443.78;4286240;33;20254;-63
2023/10/25 01:21:31;;;;;;;0.40;0.40;;;;;;;11.79;100.00;94437.31;4288358;33;20202;-63
2023/10/25 01:23:58;;;;;;;0.67;0.67;;;;;;;11.74;100.00;94440.09;4288568;33;20190;-63
2023/10/25 01:26:24;;;;;;;0.57;0.57;;;;;;;11.69;100.00;94439.19;4292642;33;20224;-63
2023/10/25 01:28:49;;;;;;;0.63;0.63;;;;;;;11.69;100.00;94439.19;4277491;33;20179;-63
2023/10/25 01:31:16;;;;;;;0.50;0.50;;;;;;;11.67;100.00;94436.06;4291263;33;20183;-63
2023/10/25 01:33:44;;;;;;;0.70;0.70;;;;;;;11.51;100.00;94442.25;4268570;33;20206;-63
2023/10/25 01:36:10;;;;;;;0.40;0.40;;;;;;;11.53;100.00;94427.56;4267835;33;20281;-63
2023/10/25 01:38:37;;;;;;;0.63;0.63;;;;;;;11.64;100.00;94434.06;4298810;33;20186;-63
2023/10/25 01:41:02;;;;;;;0.77;0.77;;;;;;;11.65;100.00;94417.00;4297018;33;20208;-63
2023/10/25 01:43:29;;;;;;;0.17;0.17;;;;;;;11.49;100.00;94423.22;4270595;33;20194;-63
2023/10/25 01:45:56;;;;;;;0.30;0.30;;;;;;;11.50;100.00;94427.41;4296133;33;20234;-63
2023/10/25 01:48:21;;;;;;;0.20;0.20;;;;;;;11.55;100.00;94421.94;4274533;33;20216;-63
2023/10/25 01:50:51;;;;;;;0.10;0.10;;;;;;;11.47;100.00;94423.53;4295430;33;20183;-63
2023/10/25 01:53:16;;;;;;;0.40;0.37;;;;;;;11.49;99.62;94423.22;4264531;33;20216;-63
2023/10/25 01:55:42;;;;;;;0.20;0.20;;;;;;;11.45;99.23;94417.75;4292736;33;20182;-63
2023/10/25 01:58:08;;;;;;;0.37;0.37;;;;;;;11.63;99.49;94413.16;4313729;33;20339;-63
2023/10/25 02:00:37;;;;;;;0.70;0.70;;;;;;;11.70;98.68;94421.37;4305610;33;20288;-63
2023/10/25 02:03:07;;;;;;;0.50;0.50;;;;;;;11.69;98.85;94412.63;4287366;33;20201;-63
2023/10/25 02:05:32;;;;;;;0.47;0.47;;;;;;;11.70;98.41;94406.22;4313163;33;20194;-63
2023/10/25 02:07:57;;;;;;;0.20;0.20;;;;;;;11.87;97.53;94400.03;4316288;33;20208;-62
2023/10/25 02:10:24;;;;;;;0.30;0.30;;;;;;;11.80;97.58;94402.44;4292722;33;20261;-63
2023/10/25 02:12:52;;;;;;;0.50;0.50;;;;;;;11.85;97.77;94394.25;4290803;33;20191;-63
2023/10/25 02:15:18;;;;;;;0.30;0.30;;;;;;;11.88;96.75;94398.91;4287861;33;20186;-63
2023/10/25 02:17:43;;;;;;;0.50;0.50;;;;;;;11.85;96.55;94391.59;4308336;33;20178;-62
2023/10/25 02:20:12;;;;;;;0.10;0.10;;;;;;;11.89;96.41;94389.06;4301295;33;20240;-63
2023/10/25 02:22:38;;;;;;;1.00;0.30;;;;;;;11.88;96.96;94387.50;4285366;33;20246;-63
2023/10/25 02:25:05;;;;;;;0.40;0.40;;;;;;;11.90;97.11;94396.72;4306539;33;20186;-63
2023/10/25 02:27:32;;;;;;;0.27;0.27;;;;;;;11.83;97.66;94393.03;4297992;33;20208;-63
2023/10/25 02:29:58;;;;;;;0.47;0.47;;;;;;;11.88;97.25;94392.81;4310878;33;20200;-62
2023/10/25 02:32:26;;;;;;;0.40;0.40;;;;;;;11.88;97.24;94398.16;4310496;33;20190;-62
2023/10/25 02:34:52;;;;;;;0.30;0.30;;;;;;;11.85;97.17;94398.78;4295275;33;20190;-62
2023/10/25 02:37:18;;;;;;;0.70;0.70;;;;;;;11.92;97.38;94389.22;4298109;33;20193;-63
2023/10/25 02:39:48;;;;;;;0.57;0.57;;;;;;;11.80;97.34;94391.81;4297412;33;20190;-63
2023/10/25 02:42:15;;;;;;;0.30;0.17;;;;;;;11.77;97.31;94389.00;4289693;33;20318;-63
2023/10/25 02:45:00;;;;;;;0.53;0.53;;;;;;;11.74;97.82;94394.94;4314460;33;20186;-63
2023/10/25 02:47:32;;;;;;;0.30;0.30;;;;;;;11.84;97.67;94397.25;4288536;33;20186;-63
2023/10/25 02:49:59;;;;;;;0.60;0.60;;;;;;;11.85;97.27;94409.41;4303136;33;20239;-63
2023/10/25 02:52:27;;;;;;;0.40;0.40;;;;;;;11.91;96.83;94402.81;4321284;33;20242;-63
2023/10/25 02:54:55;;;;;;;0.53;0.53;;;;;;;11.79;96.86;94400.09;4281731;33;20205;-63
2023/10/25 02:57:20;;;;;;;0.20;0.20;;;;;;;11.67;97.28;94403.41;4314670;33;20260;-63
2023/10/25 02:59:47;;;;;;;0.60;0.60;;;;;;;11.83;97.78;94403.66;4312428;33;20245;-63
2023/10/25 03:02:13;;;;;;;1.43;0.83;;;;;;;11.84;97.63;94402.56;4287447;33;20212;-63
2023/10/25 03:04:42;;;;;;;4.80;0.87;;;;;;;11.92;97.49;94409.69;4313389;33;20200;-63
2023/10/25 03:07:10;;;;;;;0.63;0.63;;;;;;;11.85;97.72;94420.03;4300942;33;20286;-63
2023/10/25 03:09:35;;;;;;;0.20;0.20;;;;;;;11.76;98.06;94422.78;4303117;33;20308;-62
2023/10/25 03:12:04;;;;;;;0.30;0.30;;;;;;;11.81;97.79;94413.84;4264188;33;20194;-63
2023/10/25 03:14:30;;;;;;;0.87;0.87;;;;;;;11.72;97.09;94405.87;4265316;33;20202;-63
2023/10/25 03:16:55;;;;;;;0.50;0.50;;;;;;;11.62;97.92;94401.75;4314611;33;20178;-63
2023/10/25 03:19:25;;;;;;;0.10;0.10;;;;;;;11.73;97.04;94396.81;4286005;33;20213;-63
2023/10/25 03:21:51;;;;;;;0.20;0.20;;;;;;;11.70;97.06;94397.47;4311712;33;20197;-63
2023/10/25 03:24:21;;;;;;;0.20;0.20;;;;;;;11.73;96.94;94401.34;4309543;33;20240;-62
2023/10/25 03:26:48;;;;;;;0.43;0.43;;;;;;;11.78;96.34;94396.66;4298933;33;20186;-63
2023/10/25 03:29:15;;;;;;;0.20;0.20;;;;;;;11.88;96.03;94398.16;4318388;33;20198;-63
2023/10/25 03:31:41;;;;;;;0.10;0.10;;;;;;;11.76;96.68;94406.03;4291596;33;20308;-62
2023/10/25 03:34:09;;;;;;;0.20;0.20;;;;;;;11.63;97.25;94395.34;4293917;33;20235;-62
2023/10/25 03:36:37;;;;;;;0.23;0.23;;;;;;;11.68;96.95;94400.44;4308148;33;20204;-63
2023/10/25 03:39:16;;;;;;;0.40;0.40;;;;;;;11.58;97.48;94395.50;4300251;33;20190;-63
2023/10/25 03:41:46;;;;;;;0.20;0.20;;;;;;;11.56;97.66;94392.41;4267629;33;20287;-63
2023/10/25 03:44:13;;;;;;;0.30;0.30;;;;;;;11.62;97.57;94391.13;4300307;33;20285;-63
2023/10/25 03:46:40;;;;;;;0.20;0.20;;;;;;;11.50;97.62;94399.00;4299617;33;20265;-63
2023/10/25 03:49:07;;;;;;;0.10;0.10;;;;;;;11.53;97.91;94402.88;4302575;33;20248;-63
2023/10/25 03:51:33;;;;;;;0.33;0.33;;;;;;;11.56;97.70;94400.38;4305588;33;20193;-63
2023/10/25 03:54:00;;;;;;;0.40;0.40;;;;;;;11.54;97.62;94399.91;4295014;33;20186;-62
2023/10/25 03:56:27;;;;;;;0.43;0.33;;;;;;;11.56;97.60;94399.59;4298358;33;20193;-63
2023/10/25 03:58:54;;;;;;;0.00;0.00;;;;;;;11.53;97.60;94398.34;4293483;33;20244;-63
2023/10/25 04:01:19;;;;;;;0.00;0.00;;;;;;;11.37;98.28;94394.69;4294949;33;20269;-62
2023/10/25 04:03:47;;;;;;;0.30;0.30;;;;;;;11.45;97.98;94395.72;4312412;33;20178;-63
2023/10/25 04:06:14;;;;;;;0.23;0.23;;;;;;;11.62;97.16;94390.34;4273538;33;20219;-62
2023/10/25 04:08:40;;;;;;;0.20;0.20;;;;;;;11.68;96.68;94387.16;4297697;33;20241;-63
2023/10/25 04:11:07;;;;;;;0.10;0.10;;;;;;;11.74;96.54;94386.97;4297765;33;20200;-62
2023/10/25 04:13:33;;;;;;;0.50;0.50;;;;;;;11.75;96.41;94385.88;4296858;33;20196;-62
2023/10/25 04:16:11;;;;;;;0.30;0.30;;;;;;;11.76;96.34;94371.47;4306963;33;20193;-62
2023/10/25 04:18:38;;;;;;;0.20;0.20;;;;;;;11.54;96.76;94377.88;4300096;33;20190;-63
2023/10/25 04:21:10;;;;;;;0.20;0.20;;;;;;;11.68;96.57;94387.16;4297807;33;20237;-63
2023/10/25 04:23:38;;;;;;;0.40;0.27;;;;;;;11.67;96.55;94382.16;4306846;33;20182;-63
2023/10/25 04:26:14;;;;;;;2.17;0.70;;;;;;;11.70;96.02;94376.19;4247365;33;20186;-63
2023/10/25 04:28:43;;;;;;;0.10;0.10;;;;;;;11.57;96.60;94383.31;4305788;33;20277;-63
2023/10/25 04:31:12;;;;;;;0.30;0.30;;;;;;;11.52;97.16;94380.84;4253199;33;20279;-63
2023/10/25 04:33:39;;;;;;;0.27;0.27;;;;;;;11.49;97.52;94376.19;4288477;33;20199;-63
2023/10/25 04:36:07;;;;;;;0.10;0.10;;;;;;;11.42;97.25;94375.16;4263223;33;20249;-63
2023/10/25 04:38:33;;;;;;;0.20;0.20;;;;;;;11.46;97.41;94368.84;4307025;33;20200;-63
2023/10/25 04:41:00;;;;;;;0.10;0.10;;;;;;;11.52;97.07;94367.56;4290620;33;20183;-62
2023/10/25 04:43:27;;;;;;;0.40;0.40;;;;;;;11.52;97.37;94367.56;4319112;33;20265;-62
2023/10/25 04:45:55;;;;;;;0.20;0.20;;;;;;;11.55;97.04;94360.84;4314365;33;20228;-62
2023/10/25 04:48:23;;;;;;;0.10;0.10;;;;;;;11.61;96.57;94357.69;4284733;33;20198;-62
2023/10/25 04:50:48;;;;;;;0.20;0.20;;;;;;;11.60;96.73;94344.72;4325885;33;20200;-63
2023/10/25 04:53:14;;;;;;;0.13;0.13;;;;;;;11.55;96.42;94344.91;4298278;33;20194;-62
2023/10/25 04:55:45;;;;;;;0.30;0.30;;;;;;;11.46;96.55;94350.25;4287475;33;20288;-63
2023/10/25 04:58:13;;;;;;;2.00;0.33;;;;;;;11.50;96.49;94356.50;4305855;33;20219;-63
2023/10/25 05:00:42;;;;;;;0.33;0.30;;;;;;;11.39;96.41;94351.88;4320239;33;20285;-62
2023/10/25 05:03:12;;;;;;;0.37;0.37;;;;;;;11.54;96.21;94352.09;4303408;33;20286;-63
2023/10/25 05:05:38;;;;;;;0.50;0.50;;;;;;;11.45;96.19;94348.69;4304538;33;20215;-62
2023/10/25 05:08:11;;;;;;;0.10;0.10;;;;;;;11.41;96.94;94350.47;4264726;33;20191;-63
2023/10/25 05:10:38;;;;;;;0.20;0.20;;;;;;;11.44;96.80;94341.06;4151166;32;20188;-63
2023/10/25 05:13:08;;;;;;;0.10;0.10;;;;;;;11.38;96.73;94343.16;4279634;33;20178;-63
2023/10/25 05:15:37;;;;;;;0.20;0.20;;;;;;;11.38;96.42;94343.16;4323514;33;20221;-63
2023/10/25 05:18:05;;;;;;;0.27;0.27;;;;;;;11.15;97.96;94344.53;4309624;33;20182;-63
2023/10/25 05:20:32;;;;;;;0.20;0.20;;;;;;;11.21;97.87;94340.59;4304475;33;20187;-63
2023/10/25 05:23:00;;;;;;;0.10;0.10;;;;;;;11.29;97.22;94345.06;4275005;33;20279;-63
2023/10/25 05:25:26;;;;;;;0.27;0.27;;;;;;;11.31;97.11;94342.88;4301937;33;20213;-63
2023/10/25 05:27:52;;;;;;;0.93;0.40;;;;;;;11.37;96.40;94336.28;4290835;33;20205;-63
2023/10/25 05:30:22;;;;;;;2.23;0.97;;;;;;;11.39;96.75;94343.91;4300252;33;20205;-63
2023/10/25 05:32:52;;;;;;;0.50;0.50;;;;;;;11.40;96.08;94340.94;4308682;33;20189;-63
2023/10/25 05:35:20;;;;;;;0.37;0.37;;;;;;;11.40;96.33;94335.63;4267193;33;20194;-63
2023/10/25 05:37:47;;;;;;;0.63;0.63;;;;;;;11.43;95.63;94339.53;4301380;33;20252;-63
2023/10/25 05:40:21;;;;;;;0.40;0.40;;;;;;;11.35;95.93;94338.47;4301262;33;20206;-63
2023/10/25 05:42:49;;;;;;;0.50;0.50;;;;;;;11.31;96.39;94334.91;4279332;33;20181;-63
2023/10/25 05:45:16;;;;;;;0.50;0.50;;;;;;;11.32;96.35;94326.62;4264017;33;20196;-63
2023/10/25 05:47:44;;;;;;;0.27;0.27;;;;;;;11.25;96.46;94330.87;4310103;33;20182;-64
2023/10/25 05:50:12;;;;;;;0.40;0.40;;;;;;;11.19;96.69;94318.91;4325906;33;20204;-63
2023/10/25 05:52:45;;;;;;;0.30;0.30;;;;;;;11.25;96.24;94318.38;4286871;33;20182;-63
2023/10/25 05:55:15;;;;;;;1.07;1.07;;;;;;;11.30;95.99;94312.09;4310558;33;20186;-63
2023/10/25 05:57:45;;;;;;;1.13;0.97;;;;;;;11.12;96.64;94324.69;4255409;33;20314;-63
2023/10/25 06:00:13;;;;;;;0.40;0.40;;;;;;;11.15;96.47;94317.97;4277252;33;20198;-63
2023/10/25 06:02:40;;;;;;;0.60;0.60;;;;;;;11.16;96.75;94317.66;4291882;33;20292;-63
2023/10/25 06:05:13;;;;;;;7.10;1.80;;;;;;;11.08;97.01;94321.13;4294108;33;20269;-65
2023/10/25 06:07:41;;;;;;;2.27;0.87;;;;;;;12.12;100.00;94318.53;4309101;33;20258;-64
2023/10/25 06:10:09;;;;;;;10.40;1.17;;;;;;;13.75;100.00;94314.94;4294718;33;20204;-65
2023/10/25 06:12:40;;;;;;;0.63;0.63;;;;;;;14.16;100.00;94321.78;4283958;33;20186;-64
2023/10/25 06:15:08;;;;;;;4.30;1.37;;;;;;;14.65;100.00;94322.34;4250488;33;20283;-63
2023/10/25 06:17:33;;;;;;;6.90;1.37;;;;;;;15.33;97.36;94313.28;4291958;33;20234;-63
2023/10/25 06:20:01;;;;;;;1.93;0.87;;;;;;;15.79;94.59;94314.31;4298648;33;20187;-63
2023/10/25 06:22:29;;;;;;;1.10;1.00;;;;;;;15.92;91.39;94302.34;4310213;33;20204;-63
2023/10/25 06:24:58;;;;;;;0.73;0.73;;;;;;;16.04;87.48;94314.81;4247615;33;20194;-63
2023/10/25 06:27:24;;;;;;;1.43;1.33;;;;;;;16.12;87.33;94311.94;4185013;33;20210;-64
2023/10/25 06:29:50;;;;;;;0.87;0.87;;;;;;;15.89;82.67;94312.97;4248751;33;20271;-62
2023/10/25 06:32:24;;;;;;;0.93;0.93;;;;;;;15.60;80.83;94307.03;4219819;33;20222;-63
2023/10/25 06:34:51;;;;;;;2.43;0.63;;;;;;;14.74;80.81;94304.28;4228651;33;20196;-63
2023/10/25 06:37:18;;;;;;;0.50;0.50;;;;;;;14.15;83.05;94311.47;4213295;33;20195;-63
2023/10/25 06:39:45;;;;;;;0.67;0.67;;;;;;;13.82;84.81;94306.38;4187802;33;20306;-63
2023/10/25 06:42:16;;;;;;;0.50;0.50;;;;;;;13.25;87.30;94299.41;4236483;33;20637;-64
2023/10/25 06:44:42;;;;;;;2.57;0.90;;;;;;;12.80;89.11;94299.50;4255972;33;20294;-63
2023/10/25 06:47:09;;;;;;;0.40;0.40;;;;;;;12.67;90.27;94301.38;4207614;33;20191;-64
2023/10/25 06:49:39;;;;;;;0.47;0.47;;;;;;;12.25;92.12;94301.50;4294562;33;20226;-64
2023/10/25 06:52:08;;;;;;;0.47;0.47;;;;;;;12.29;92.65;94297.06;4279708;33;20191;-64
2023/10/25 06:54:35;;;;;;;0.20;0.20;;;;;;;11.81;94.87;94299.59;4289928;33;20269;-64
2023/10/25 06:57:04;;;;;;;0.60;0.57;;;;;;;11.91;95.62;94299.94;4298134;33;20205;-63
2023/10/25 06:59:31;;;;;;;0.13;0.13;;;;;;;11.99;95.49;94291.13;4288723;32;20216;-64
2023/10/25 07:02:32;;;;;;;0.37;0.37;;;;;;;11.75;96.39;94296.31;4299197;33;20200;-64
2023/10/25 07:05:25;;;;;;;0.67;0.67;;;;;;;11.70;97.29;94297.28;4274452;33;20211;-63
2023/10/25 07:07:53;;;;;;;1.20;1.20;;;;;;;11.78;97.58;94292.25;4282573;33;20181;-64
2023/10/25 07:10:19;;;;;;;0.53;0.53;;;;;;;11.74;97.84;94286.78;4241575;33;20274;-63
2023/10/25 07:12:46;;;;;;;1.43;1.03;;;;;;;11.65;98.11;94289.50;4279427;33;20221;-63
2023/10/25 07:15:15;;;;;;;1.90;1.53;;;;;;;11.71;98.27;94288.22;4306539;33;20189;-64
2023/10/25 07:17:41;;;;;;;2.30;0.77;;;;;;;11.81;97.55;94284.41;4326561;33;20171;-63
2023/10/25 07:20:14;;;;;;;0.67;0.67;;;;;;;11.78;98.09;94277.09;4302941;33;20182;-64
2023/10/25 07:22:42;;;;;;;1.10;1.10;;;;;;;11.77;98.59;94280.06;4274329;33;20269;-63
2023/10/25 07:25:08;;;;;;;0.40;0.40;;;;;;;11.76;98.25;94267.84;4302183;33;20212;-64
2023/10/25 07:27:38;;;;;;;0.63;0.63;;;;;;;11.85;98.02;94272.00;4281521;33;20178;-64
2023/10/25 07:30:08;;;;;;;1.03;0.67;;;;;;;11.74;98.80;94272.72;4282978;33;20221;-63
2023/10/25 07:32:37;;;;;;;0.33;0.33;;;;;;;11.67;99.16;94274.00;4293795;33;20190;-63
2023/10/25 07:35:07;;;;;;;0.57;0.57;;;;;;;11.70;99.56;94270.72;4312101;33;20181;-64
2023/10/25 07:37:34;;;;;;;0.27;0.27;;;;;;;11.77;99.46;94270.22;4285178;33;20190;-64
2023/10/25 07:40:05;;;;;;;0.37;0.33;;;;;;;11.63;100.00;94267.81;4296310;33;20240;-64
2023/10/25 07:42:31;;;;;;;0.50;0.50;;;;;;;11.74;99.96;94259.44;4283541;33;20253;-64
2023/10/25 07:44:57;;;;;;;0.70;0.70;;;;;;;11.77;100.00;94256.94;4277460;33;20229;-64
2023/10/25 07:47:24;;;;;;;0.20;0.20;;;;;;;11.86;99.50;94262.16;4305628;33;20187;-64
2023/10/25 07:49:52;;;;;;;0.50;0.50;;;;;;;11.94;99.29;94256.78;4295252;33;20186;-63
2023/10/25 07:52:21;;;;;;;0.93;0.60;;;;;;;12.18;98.87;94274.69;4302822;32;20212;-64
2023/10/25 07:54:47;;;;;;;0.63;0.63;;;;;;;12.04;98.83;94266.22;4315322;33;20201;-64
2023/10/25 07:57:12;;;;;;;1.40;1.03;;;;;;;12.11;98.78;94266.44;4324120;33;20182;-64
2023/10/25 07:59:40;;;;;;;0.43;0.43;;;;;;;12.17;99.02;94261.72;4285087;33;20354;-64
2023/10/25 08:02:07;;;;;;;0.47;0.47;;;;;;;12.26;98.95;94262.41;4299935;33;20255;-64
2023/10/25 08:04:33;;;;;;;0.50;0.50;;;;;;;12.22;99.85;94256.97;4286532;33;20186;-64
2023/10/25 08:07:00;;;;;;;0.73;0.73;;;;;;;12.44;98.95;94260.31;4298282;33;20253;-64
2023/10/25 08:09:27;;;;;;;3.17;0.73;;;;;;;12.48;98.94;94255.88;4312310;33;20225;-64
2023/10/25 08:11:54;;;;;;;0.50;0.50;;;;;;;12.33;98.39;94251.97;4312825;33;20186;-64
2023/10/25 08:14:20;;;;;;;0.83;0.83;;;;;;;12.39;97.69;94254.09;4311998;33;20257;-64
2023/10/25 08:16:46;;;;;;;0.73;0.53;;;;;;;12.50;97.24;94251.00;4301785;33;20193;-64
2023/10/25 08:19:16;;;;;;;0.40;0.40;;;;;;;12.63;97.14;94249.91;4300544;33;20276;-63
2023/10/25 08:21:42;;;;;;;0.30;0.30;;;;;;;12.65;97.26;94250.38;4293937;33;20210;-64
2023/10/25 08:24:10;;;;;;;0.30;0.30;;;;;;;12.81;96.57;94245.94;4283512;33;20274;-64
2023/10/25 08:26:39;;;;;;;0.67;0.67;;;;;;;12.66;96.43;94246.59;4291221;33;20233;-64
2023/10/25 08:29:06;;;;;;;0.27;0.27;;;;;;;12.80;95.92;94244.38;4301526;33;20200;-64
2023/10/25 08:31:35;;;;;;;0.47;0.47;;;;;;;12.84;95.50;94250.59;4295848;33;20178;-64
2023/10/25 08:34:01;;;;;;;0.70;0.70;;;;;;;12.76;96.12;94240.81;4269094;33;20193;-63
2023/10/25 08:36:31;;;;;;;1.00;0.90;;;;;;;12.95;96.11;94238.37;4318826;33;20230;-64
2023/10/25 08:38:59;;;;;;;0.30;0.30;;;;;;;12.84;96.85;94247.94;4280253;33;20182;-64
2023/10/25 08:41:28;;;;;;;0.57;0.57;;;;;;;12.82;96.35;94239.50;4316788;33;20186;-64
2023/10/25 08:43:56;;;;;;;0.20;0.20;;;;;;;12.97;96.34;94236.16;4309508;33;20196;-64
2023/10/25 08:46:24;;;;;;;0.10;0.10;;;;;;;12.95;95.85;94241.03;4328723;33;20257;-64
2023/10/25 08:48:55;;;;;;;0.37;0.37;;;;;;;13.01;96.62;94233.59;4315903;33;20190;-64
2023/10/25 08:51:21;;;;;;;0.20;0.20;;;;;;;13.03;96.76;94232.16;4290713;33;20245;-63
2023/10/25 08:53:49;;;;;;;0.40;0.40;;;;;;;13.12;95.68;94226.69;4296325;33;20181;-64
2023/10/25 08:56:19;;;;;;;0.20;0.20;;;;;;;13.09;95.63;94220.16;4277661;33;20209;-63
2023/10/25 08:58:46;;;;;;;0.50;0.50;;;;;;;13.16;95.52;94213.50;4315314;33;20194;-62
2023/10/25 09:01:13;;;;;;;0.37;0.37;;;;;;;13.09;95.91;94217.47;4309097;33;20212;-62
2023/10/25 09:03:42;;;;;;;0.80;0.50;;;;;;;13.12;96.63;94215.25;4282390;33;20203;-62
2023/10/25 09:06:11;;;;;;;0.30;0.30;;;;;;;13.09;97.29;94222.81;4316461;33;20190;-62
2023/10/25 09:08:39;;;;;;;0.10;0.10;;;;;;;13.12;97.07;94218.69;4262511;33;20257;-62
2023/10/25 09:11:09;;;;;;;0.33;0.33;;;;;;;13.14;97.28;94205.06;4312859;33;20316;-62
2023/10/25 09:13:37;;;;;;;0.00;0.00;;;;;;;13.14;97.35;94197.06;4282963;33;20264;-63
2023/10/25 09:16:07;;;;;;;0.37;0.37;;;;;;;13.32;95.89;94196.47;4308957;33;20190;-63
2023/10/25 09:18:35;;;;;;;0.10;0.10;;;;;;;13.39;96.04;94195.91;4277707;33;20203;-63
2023/10/25 09:21:03;;;;;;;0.57;0.57;;;;;;;13.40;95.06;94197.47;4302157;33;20174;-63
2023/10/25 09:23:35;;;;;;;0.10;0.10;;;;;;;13.48;93.63;94185.13;4320584;33;20200;-63
2023/10/25 09:26:11;;;;;;;0.17;0.17;;;;;;;13.53;92.92;94190.97;4283845;33;20209;-63
2023/10/25 09:28:38;;;;;;;0.00;0.00;;;;;;;13.63;93.14;94182.50;4301499;33;20190;-63
2023/10/25 09:31:27;;;;;;;0.10;0.10;;;;;;;13.63;92.50;94179.84;4297377;33;20182;-63
2023/10/25 09:33:57;;;;;;;0.10;0.10;;;;;;;13.65;93.42;94179.50;4306510;33;20224;-63
2023/10/25 09:36:28;;;;;;;0.70;0.30;;;;;;;13.51;94.92;94169.22;4294255;33;20179;-63
2023/10/25 09:38:55;;;;;;;0.03;0.03;;;;;;;13.59;92.95;94167.53;4307555;33;20179;-63
2023/10/25 09:41:24;;;;;;;0.33;0.10;;;;;;;13.68;91.84;94166.28;4293599;33;20186;-63
2023/10/25 09:43:51;;;;;;;2.00;0.30;;;;;;;13.79;91.53;94161.22;4297081;33;20194;-63
2023/10/25 09:46:30;;;;;;;0.00;0.00;;;;;;;13.73;91.75;94158.00;4307926;33;20309;-63
2023/10/25 09:49:07;;;;;;;0.10;0.10;;;;;;;13.87;90.97;94159.50;4314217;33;20196;-63
2023/10/25 09:51:51;;;;;;;0.00;0.00;;;;;;;13.93;90.34;94158.12;4305519;33;20219;-64
2023/10/25 09:54:31;;;;;;;0.00;0.00;;;;;;;13.92;90.34;94156.59;4283708;33;20205;-63
2023/10/25 09:57:04;;;;;;;0.60;0.30;;;;;;;13.99;90.79;94154.09;4271822;33;20278;-63
2023/10/25 09:59:32;;;;;;;0.00;0.00;;;;;;;14.12;88.88;94144.91;4276807;33;20201;-63
2023/10/25 10:01:59;;;;;;;0.00;0.00;;;;;;;14.11;87.57;94146.03;4293374;33;20193;-63
2023/10/25 10:04:33;;;;;;;0.00;0.00;;;;;;;14.17;86.57;94141.97;4300698;33;20190;-63
2023/10/25 10:07:36;;;;;;;0.00;0.00;;;;;;;14.21;86.44;94134.81;4293636;33;20190;-63
2023/10/25 10:10:38;;;;;;;0.00;0.00;;;;;;;14.36;86.35;94134.03;4307634;33;20190;-63
2023/10/25 10:13:21;;;;;;;0.10;0.10;;;;;;;14.24;87.19;94136.03;4282855;33;20364;-63
2023/10/25 10:16:15;;;;;;;0.10;0.10;;;;;;;14.29;88.38;94143.78;4296782;33;20236;-63
2023/10/25 10:18:45;;;;;;;0.00;0.00;;;;;;;14.29;87.93;94141.13;4273999;33;20179;-63
2023/10/25 10:21:13;;;;;;;0.00;0.00;;;;;;;14.29;87.47;94138.44;4291412;33;20208;-63
2023/10/25 10:23:50;;;;;;;0.10;0.10;;;;;;;14.23;87.51;94143.25;4308784;33;20186;-63
2023/10/25 10:26:47;;;;;;;0.10;0.10;;;;;;;14.18;89.04;94138.19;4272642;33;20186;-63
2023/10/25 10:29:37;;;;;;;0.27;0.27;;;;;;;14.28;87.45;94132.34;4300297;33;20182;-63
2023/10/25 10:32:13;;;;;;;0.10;0.10;;;;;;;14.31;87.24;94120.22;4287411;33;20196;-63
2023/10/25 10:34:56;;;;;;;0.10;0.10;;;;;;;14.29;86.86;94117.87;4295720;33;20212;-63
2023/10/25 10:37:57;;;;;;;0.27;0.27;;;;;;;14.36;87.23;94110.03;4259661;33;21163;-63
2023/10/25 10:40:25;;;;;;;0.00;0.00;;;;;;;14.39;86.04;94106.66;4286363;33;20178;-63
2023/10/25 10:42:51;;;;;;;0.00;0.00;;;;;;;14.35;87.59;94105.81;4297849;33;20217;-63
2023/10/25 10:45:19;;;;;;;0.33;0.27;;;;;;;14.42;87.89;94094.56;4315162;32;20297;-63
2023/10/25 10:47:53;;;;;;;0.00;0.00;;;;;;;14.49;86.92;94093.94;4305247;33;20239;-63
2023/10/25 10:50:22;;;;;;;0.10;0.10;;;;;;;14.44;87.78;94095.75;4272671;33;20194;-63
2023/10/25 10:52:53;;;;;;;0.07;0.07;;;;;;;14.60;85.70;94086.94;4308064;32;20249;-63
2023/10/25 10:55:22;;;;;;;0.00;0.00;;;;;;;14.55;87.26;94087.97;4293686;33;20224;-63
2023/10/25 10:57:48;;;;;;;0.00;0.00;;;;;;;14.51;88.22;94075.69;4312332;33;20182;-63
2023/10/25 11:00:19;;;;;;;0.00;0.00;;;;;;;14.57;87.16;94071.63;4304628;33;20193;-64
2023/10/25 11:03:02;;;;;;;0.00;0.00;;;;;;;14.58;86.82;94070.50;4291587;33;20189;-63
2023/10/25 11:05:31;;;;;;;0.10;0.10;;;;;;;14.62;85.72;94064.13;4280198;33;20323;-63
2023/10/25 11:07:58;;;;;;;0.10;0.10;;;;;;;14.64;85.62;94063.78;4311040;33;20221;-63
2023/10/25 11:10:27;;;;;;;0.10;0.10;;;;;;;14.64;85.01;94055.75;4296502;33;20181;-63
2023/10/25 11:12:53;;;;;;;0.00;0.00;;;;;;;14.59;85.47;94069.38;4297880;33;20204;-63
2023/10/25 11:15:24;;;;;;;0.07;0.07;;;;;;;14.62;84.95;94058.00;4279688;33;20190;-62
2023/10/25 11:17:49;;;;;;;0.20;0.20;;;;;;;14.60;84.63;94054.91;4272734;33;20190;-63
2023/10/25 11:20:14;;;;;;;0.00;0.00;;;;;;;14.67;84.27;94039.81;4280067;33;20230;-63
2023/10/25 11:22:41;;;;;;;0.00;0.00;;;;;;;14.66;84.65;94040.16;4305514;33;20229;-63
2023/10/25 11:25:11;;;;;;;0.80;0.80;;;;;;;14.70;84.06;94025.00;4315486;33;20190;-63
2023/10/25 11:27:41;;;;;;;0.60;0.60;;;;;;;14.76;83.90;94020.91;4289622;33;20194;-62
2023/10/25 11:30:08;;;;;;;1.60;0.60;;;;;;;14.77;85.06;94011.78;4298704;33;20186;-63
2023/10/25 11:32:36;;;;;;;0.23;0.23;;;;;;;14.79;84.58;94009.53;4309802;33;20200;-63
2023/10/25 11:35:04;;;;;;;0.27;0.27;;;;;;;14.76;85.06;93997.66;4301581;33;20186;-62
2023/10/25 11:37:42;;;;;;;0.03;0.03;;;;;;;14.88;82.65;93994.09;4313955;33;20178;-63
2023/10/25 11:40:12;;;;;;;0.00;0.00;;;;;;;14.88;83.59;93986.06;4269689;33;20185;-63